sensor_id;sensor_type;location;lat;lon;timestamp;temperature;humidity
15184;DHT22;7693;49.266;7.104;2023-05-28T05:31:51;13.90;94.40
15184;DHT22;7693;49.266;7.104;2023-05-28T05:34:17;14.00;95.20
15184;DHT22;7693;49.266;7.104;2023-05-28T05:36:42;14.10;95.50
15184;DHT22;7693;49.266;7.104;2023-05-28T05:39:08;14.20;95.60
15184;DHT22;7693;49.266;7.104;2023-05-28T05:41:34;14.20;95.70
15184;DHT22;7693;49.266;7.104;2023-05-28T05:43:59;14.30;95.80
15184;DHT22;7693;49.266;7.104;2023-05-28T05:46:25;14.40;95.90
15184;DHT22;7693;49.266;7.104;2023-05-28T05:48:51;14.50;95.90
15184;DHT22;7693;49.266;7.104;2023-05-28T05:51:16;14.60;96.10
15184;DHT22;7693;49.266;7.104;2023-05-28T05:53:44;14.70;96.10
15184;DHT22;7693;49.266;7.104;2023-05-28T05:56:10;14.70;96.00
15184;DHT22;7693;49.266;7.104;2023-05-28T05:58:36;14.80;96.20
15184;DHT22;7693;49.266;7.104;2023-05-28T06:01:02;15.00;96.50
15184;DHT22;7693;49.266;7.104;2023-05-28T06:03:28;15.10;96.50
15184;DHT22;7693;49.266;7.104;2023-05-28T06:05:54;15.20;96.30
15184;DHT22;7693;49.266;7.104;2023-05-28T06:08:20;15.30;96.30
15184;DHT22;7693;49.266;7.104;2023-05-28T06:10:45;15.30;96.20
15184;DHT22;7693;49.266;7.104;2023-05-28T06:13:13;15.40;96.40
15184;DHT22;7693;49.266;7.104;2023-05-28T06:15:39;15.40;96.50
15184;DHT22;7693;49.266;7.104;2023-05-28T06:18:05;15.50;96.40
15184;DHT22;7693;49.266;7.104;2023-05-28T06:20:30;15.60;96.60
15184;DHT22;7693;49.266;7.104;2023-05-28T06:22:56;15.70;96.60
15184;DHT22;7693;49.266;7.104;2023-05-28T06:25:22;15.80;96.60
15184;DHT22;7693;49.266;7.104;2023-05-28T06:27:48;15.90;96.70
15184;DHT22;7693;49.266;7.104;2023-05-28T06:30:14;16.00;96.70
15184;DHT22;7693;49.266;7.104;2023-05-28T06:32:41;16.10;96.60
15184;DHT22;7693;49.266;7.104;2023-05-28T06:35:07;16.10;96.60
15184;DHT22;7693;49.266;7.104;2023-05-28T06:37:33;16.20;96.80
15184;DHT22;7693;49.266;7.104;2023-05-28T06:39:59;16.40;96.90
15184;DHT22;7693;49.266;7.104;2023-05-28T06:42:25;16.50;96.90
15184;DHT22;7693;49.266;7.104;2023-05-28T06:44:50;16.60;96.90
15184;DHT22;7693;49.266;7.104;2023-05-28T06:47:16;16.70;96.60
15184;DHT22;7693;49.266;7.104;2023-05-28T06:49:42;16.80;96.70
15184;DHT22;7693;49.266;7.104;2023-05-28T06:52:07;16.90;96.80
15184;DHT22;7693;49.266;7.104;2023-05-28T06:54:33;17.00;96.90
15184;DHT22;7693;49.266;7.104;2023-05-28T06:56:59;17.10;96.60
15184;DHT22;7693;49.266;7.104;2023-05-28T06:59:24;17.10;96.30
15184;DHT22;7693;49.266;7.104;2023-05-28T07:01:50;17.20;96.40
15184;DHT22;7693;49.266;7.104;2023-05-28T07:04:16;17.30;96.50
15184;DHT22;7693;49.266;7.104;2023-05-28T07:06:42;17.30;96.30
15184;DHT22;7693;49.266;7.104;2023-05-28T07:09:08;17.40;96.60
15184;DHT22;7693;49.266;7.104;2023-05-28T07:11:33;17.60;96.60
15184;DHT22;7693;49.266;7.104;2023-05-28T07:13:59;17.70;96.60
15184;DHT22;7693;49.266;7.104;2023-05-28T07:16:25;17.80;96.70
15184;DHT22;7693;49.266;7.104;2023-05-28T07:18:50;18.00;96.60
15184;DHT22;7693;49.266;7.104;2023-05-28T07:21:16;18.10;96.40
15184;DHT22;7693;49.266;7.104;2023-05-28T07:23:42;18.10;96.30
15184;DHT22;7693;49.266;7.104;2023-05-28T07:26:07;18.10;96.10
15184;DHT22;7693;49.266;7.104;2023-05-28T07:28:33;18.20;96.20
15184;DHT22;7693;49.266;7.104;2023-05-28T07:30:59;18.30;96.30
15184;DHT22;7693;49.266;7.104;2023-05-28T07:33:25;18.30;95.80
15184;DHT22;7693;49.266;7.104;2023-05-28T07:35:50;18.30;96.00
15184;DHT22;7693;49.266;7.104;2023-05-28T07:38:16;18.40;96.00
15184;DHT22;7693;49.266;7.104;2023-05-28T07:40:42;18.50;96.00
15184;DHT22;7693;49.266;7.104;2023-05-28T07:43:08;18.60;96.00
15184;DHT22;7693;49.266;7.104;2023-05-28T07:45:34;18.70;96.10
15184;DHT22;7693;49.266;7.104;2023-05-28T07:48:00;18.80;95.70
15184;DHT22;7693;49.266;7.104;2023-05-28T07:50:26;18.90;95.60
15184;DHT22;7693;49.266;7.104;2023-05-28T07:52:52;19.00;95.70
15184;DHT22;7693;49.266;7.104;2023-05-28T07:55:18;19.10;95.80
15184;DHT22;7693;49.266;7.104;2023-05-28T07:57:43;19.20;95.40
15184;DHT22;7693;49.266;7.104;2023-05-28T08:00:09;19.30;95.40
15184;DHT22;7693;49.266;7.104;2023-05-28T08:02:42;19.30;95.60
15184;DHT22;7693;49.266;7.104;2023-05-28T08:05:07;19.40;95.30
15184;DHT22;7693;49.266;7.104;2023-05-28T08:07:34;19.50;95.50
15184;DHT22;7693;49.266;7.104;2023-05-28T08:09:59;19.60;95.50
15184;DHT22;7693;49.266;7.104;2023-05-28T08:12:25;19.70;95.40
15184;DHT22;7693;49.266;7.104;2023-05-28T08:14:51;19.80;95.10
15184;DHT22;7693;49.266;7.104;2023-05-28T08:17:17;19.90;95.20
15184;DHT22;7693;49.266;7.104;2023-05-28T08:19:42;20.00;95.10
15184;DHT22;7693;49.266;7.104;2023-05-28T08:22:08;20.10;95.00
15184;DHT22;7693;49.266;7.104;2023-05-28T08:24:33;20.20;94.70
15184;DHT22;7693;49.266;7.104;2023-05-28T08:26:59;20.20;94.70
15184;DHT22;7693;49.266;7.104;2023-05-28T08:29:25;20.40;94.70
15184;DHT22;7693;49.266;7.104;2023-05-28T08:31:51;20.40;94.70
15184;DHT22;7693;49.266;7.104;2023-05-28T08:34:16;20.50;94.40
15184;DHT22;7693;49.266;7.104;2023-05-28T08:36:42;20.60;94.10
15184;DHT22;7693;49.266;7.104;2023-05-28T08:39:07;20.60;94.10
15184;DHT22;7693;49.266;7.104;2023-05-28T08:41:34;20.60;94.10
15184;DHT22;7693;49.266;7.104;2023-05-28T08:43:59;20.70;94.40
15184;DHT22;7693;49.266;7.104;2023-05-28T08:46:27;20.80;93.90
15184;DHT22;7693;49.266;7.104;2023-05-28T08:48:53;20.90;93.80
15184;DHT22;7693;49.266;7.104;2023-05-28T08:51:20;21.00;93.50
15184;DHT22;7693;49.266;7.104;2023-05-28T08:53:49;21.00;93.30
15184;DHT22;7693;49.266;7.104;2023-05-28T08:56:14;21.10;93.20
15184;DHT22;7693;49.266;7.104;2023-05-28T08:58:40;21.10;93.20
15184;DHT22;7693;49.266;7.104;2023-05-28T09:01:09;21.20;93.00
15184;DHT22;7693;49.266;7.104;2023-05-28T09:03:37;21.20;93.00
15184;DHT22;7693;49.266;7.104;2023-05-28T09:06:03;21.30;93.10
15184;DHT22;7693;49.266;7.104;2023-05-28T09:08:29;21.40;93.00
15184;DHT22;7693;49.266;7.104;2023-05-28T09:11:12;21.60;93.00
15184;DHT22;7693;49.266;7.104;2023-05-28T09:13:44;21.70;92.90
15184;DHT22;7693;49.266;7.104;2023-05-28T09:16:11;21.80;92.70
15184;DHT22;7693;49.266;7.104;2023-05-28T09:18:37;21.80;92.40
15184;DHT22;7693;49.266;7.104;2023-05-28T09:21:09;21.90;92.30
15184;DHT22;7693;49.266;7.104;2023-05-28T09:23:38;21.90;91.60
15184;DHT22;7693;49.266;7.104;2023-05-28T09:26:08;21.90;92.00
15184;DHT22;7693;49.266;7.104;2023-05-28T09:28:34;22.00;91.60
15184;DHT22;7693;49.266;7.104;2023-05-28T09:31:04;22.10;91.70
15184;DHT22;7693;49.266;7.104;2023-05-28T09:33:30;22.20;91.80
15184;DHT22;7693;49.266;7.104;2023-05-28T09:36:00;22.30;91.70
15184;DHT22;7693;49.266;7.104;2023-05-28T09:38:27;22.30;91.30
15184;DHT22;7693;49.266;7.104;2023-05-28T09:40:55;22.40;91.40
15184;DHT22;7693;49.266;7.104;2023-05-28T09:43:27;22.40;90.70
15184;DHT22;7693;49.266;7.104;2023-05-28T09:46:07;22.50;91.00
15184;DHT22;7693;49.266;7.104;2023-05-28T09:48:33;22.50;90.70
15184;DHT22;7693;49.266;7.104;2023-05-28T09:51:00;22.60;90.20
15184;DHT22;7693;49.266;7.104;2023-05-28T09:53:28;22.60;90.00
15184;DHT22;7693;49.266;7.104;2023-05-28T09:55:55;22.60;90.70
15184;DHT22;7693;49.266;7.104;2023-05-28T09:58:34;22.70;90.60
15184;DHT22;7693;49.266;7.104;2023-05-28T10:01:08;22.90;90.60
15184;DHT22;7693;49.266;7.104;2023-05-28T10:03:37;23.10;89.60
15184;DHT22;7693;49.266;7.104;2023-05-28T10:06:09;23.10;89.30
15184;DHT22;7693;49.266;7.104;2023-05-28T10:08:37;23.20;88.40
15184;DHT22;7693;49.266;7.104;2023-05-28T10:11:06;23.20;88.60
15184;DHT22;7693;49.266;7.104;2023-05-28T10:13:34;23.30;88.70
15184;DHT22;7693;49.266;7.104;2023-05-28T10:16:00;23.40;87.00
15184;DHT22;7693;49.266;7.104;2023-05-28T10:18:26;23.40;87.70
15184;DHT22;7693;49.266;7.104;2023-05-28T10:20:53;23.40;86.40
15184;DHT22;7693;49.266;7.104;2023-05-28T10:23:20;23.40;85.90
15184;DHT22;7693;49.266;7.104;2023-05-28T10:25:47;23.40;86.20
15184;DHT22;7693;49.266;7.104;2023-05-28T10:28:16;23.50;86.00
15184;DHT22;7693;49.266;7.104;2023-05-28T10:30:42;23.60;85.60
15184;DHT22;7693;49.266;7.104;2023-05-28T10:33:11;23.60;85.00
15184;DHT22;7693;49.266;7.104;2023-05-28T10:35:54;23.60;83.60
15184;DHT22;7693;49.266;7.104;2023-05-28T10:38:20;23.60;83.40
15184;DHT22;7693;49.266;7.104;2023-05-28T10:40:46;23.60;83.50
15184;DHT22;7693;49.266;7.104;2023-05-28T10:46:19;23.80;84.10
15184;DHT22;7693;49.266;7.104;2023-05-28T10:49:05;23.90;82.20
15184;DHT22;7693;49.266;7.104;2023-05-28T10:51:56;23.80;82.70
15184;DHT22;7693;49.266;7.104;2023-05-28T10:57:17;23.90;82.50
15184;DHT22;7693;49.266;7.104;2023-05-28T11:02:10;24.10;81.40
15184;DHT22;7693;49.266;7.104;2023-05-28T11:04:35;24.10;79.80
15184;DHT22;7693;49.266;7.104;2023-05-28T11:07:02;24.10;80.70
15184;DHT22;7693;49.266;7.104;2023-05-28T11:09:28;24.00;80.50
15184;DHT22;7693;49.266;7.104;2023-05-28T11:11:58;24.10;80.30
15184;DHT22;7693;49.266;7.104;2023-05-28T11:14:29;24.10;78.40
15184;DHT22;7693;49.266;7.104;2023-05-28T15:37:35;25.00;61.50
15184;DHT22;7693;49.266;7.104;2023-05-28T15:40:01;25.00;61.80
15184;DHT22;7693;49.266;7.104;2023-05-28T15:42:27;25.00;61.70
15184;DHT22;7693;49.266;7.104;2023-05-28T15:44:53;25.00;61.80
15184;DHT22;7693;49.266;7.104;2023-05-28T15:47:18;24.90;61.90
15184;DHT22;7693;49.266;7.104;2023-05-28T15:49:47;25.00;62.30
15184;DHT22;7693;49.266;7.104;2023-05-28T15:52:13;25.00;61.90
15184;DHT22;7693;49.266;7.104;2023-05-28T15:54:39;25.00;61.70
15184;DHT22;7693;49.266;7.104;2023-05-28T15:57:04;25.10;62.40
15184;DHT22;7693;49.266;7.104;2023-05-28T15:59:30;25.10;61.80
15184;DHT22;7693;49.266;7.104;2023-05-28T16:01:56;25.00;61.90
15184;DHT22;7693;49.266;7.104;2023-05-28T16:04:22;25.10;62.50
15184;DHT22;7693;49.266;7.104;2023-05-28T16:06:48;25.00;62.10
15184;DHT22;7693;49.266;7.104;2023-05-28T16:09:14;25.00;61.40
15184;DHT22;7693;49.266;7.104;2023-05-28T16:11:42;24.90;61.00
15184;DHT22;7693;49.266;7.104;2023-05-28T16:14:13;24.80;60.70
15184;DHT22;7693;49.266;7.104;2023-05-28T16:16:41;24.80;60.80
15184;DHT22;7693;49.266;7.104;2023-05-28T16:19:08;24.70;61.10
15184;DHT22;7693;49.266;7.104;2023-05-28T16:21:33;24.70;61.30
15184;DHT22;7693;49.266;7.104;2023-05-28T16:24:00;24.80;61.20
15184;DHT22;7693;49.266;7.104;2023-05-28T16:26:27;24.80;61.40
15184;DHT22;7693;49.266;7.104;2023-05-28T16:28:53;24.80;61.20
15184;DHT22;7693;49.266;7.104;2023-05-28T16:31:21;24.70;61.00
15184;DHT22;7693;49.266;7.104;2023-05-28T16:33:49;24.70;60.90
15184;DHT22;7693;49.266;7.104;2023-05-28T16:36:15;24.70;61.20
15184;DHT22;7693;49.266;7.104;2023-05-28T16:38:41;24.70;61.10
15184;DHT22;7693;49.266;7.104;2023-05-28T16:41:06;24.60;60.80
15184;DHT22;7693;49.266;7.104;2023-05-28T16:43:32;24.60;60.60
15184;DHT22;7693;49.266;7.104;2023-05-28T16:45:58;24.50;60.70
15184;DHT22;7693;49.266;7.104;2023-05-28T16:48:25;24.50;61.30
15184;DHT22;7693;49.266;7.104;2023-05-28T16:50:51;24.50;60.60
15184;DHT22;7693;49.266;7.104;2023-05-28T16:53:18;24.50;61.10
15184;DHT22;7693;49.266;7.104;2023-05-28T16:55:43;24.40;61.00
15184;DHT22;7693;49.266;7.104;2023-05-28T16:58:09;24.40;60.60
15184;DHT22;7693;49.266;7.104;2023-05-28T17:00:35;24.40;60.20
15184;DHT22;7693;49.266;7.104;2023-05-28T17:03:00;24.40;60.00
15184;DHT22;7693;49.266;7.104;2023-05-28T17:05:26;24.30;60.30
15184;DHT22;7693;49.266;7.104;2023-05-28T17:07:52;24.40;60.30
15184;DHT22;7693;49.266;7.104;2023-05-28T17:10:18;24.30;60.00
15184;DHT22;7693;49.266;7.104;2023-05-28T17:12:44;24.30;59.80
15184;DHT22;7693;49.266;7.104;2023-05-28T17:15:10;24.20;59.30
15184;DHT22;7693;49.266;7.104;2023-05-28T17:17:36;24.20;59.80
15184;DHT22;7693;49.266;7.104;2023-05-28T17:20:02;24.10;59.80
15184;DHT22;7693;49.266;7.104;2023-05-28T17:22:33;24.10;59.70
15184;DHT22;7693;49.266;7.104;2023-05-28T17:24:59;24.00;59.60
15184;DHT22;7693;49.266;7.104;2023-05-28T17:27:24;24.00;59.80
15184;DHT22;7693;49.266;7.104;2023-05-28T17:29:50;24.00;59.90
15184;DHT22;7693;49.266;7.104;2023-05-28T17:32:15;23.90;59.40
15184;DHT22;7693;49.266;7.104;2023-05-28T17:34:41;23.90;59.60
15184;DHT22;7693;49.266;7.104;2023-05-28T17:37:10;23.90;60.00
15184;DHT22;7693;49.266;7.104;2023-05-28T17:39:35;24.20;62.10
15184;DHT22;7693;49.266;7.104;2023-05-28T17:42:01;24.50;62.00
15184;DHT22;7693;49.266;7.104;2023-05-28T17:44:27;24.80;62.40
15184;DHT22;7693;49.266;7.104;2023-05-28T17:46:52;24.80;60.60
15184;DHT22;7693;49.266;7.104;2023-05-28T17:49:18;24.60;59.70
15184;DHT22;7693;49.266;7.104;2023-05-28T17:51:44;24.40;59.30
15184;DHT22;7693;49.266;7.104;2023-05-28T17:54:09;24.20;58.80
15184;DHT22;7693;49.266;7.104;2023-05-28T17:56:36;24.10;59.20
15184;DHT22;7693;49.266;7.104;2023-05-28T17:59:02;23.90;59.40
15184;DHT22;7693;49.266;7.104;2023-05-28T18:01:29;23.80;59.60
15184;DHT22;7693;49.266;7.104;2023-05-28T18:03:56;23.70;59.80
15184;DHT22;7693;49.266;7.104;2023-05-28T18:06:22;23.60;59.70
15184;DHT22;7693;49.266;7.104;2023-05-28T18:08:48;23.60;59.80
15184;DHT22;7693;49.266;7.104;2023-05-28T18:11:13;23.50;59.80
15184;DHT22;7693;49.266;7.104;2023-05-28T18:13:39;23.40;59.90
15184;DHT22;7693;49.266;7.104;2023-05-28T18:16:05;23.40;59.90
15184;DHT22;7693;49.266;7.104;2023-05-28T18:18:31;23.30;59.90
15184;DHT22;7693;49.266;7.104;2023-05-28T18:20:57;23.30;60.00
15184;DHT22;7693;49.266;7.104;2023-05-28T18:23:22;23.20;60.10
15184;DHT22;7693;49.266;7.104;2023-05-28T18:25:50;23.10;60.10
15184;DHT22;7693;49.266;7.104;2023-05-28T18:28:16;23.10;60.20
15184;DHT22;7693;49.266;7.104;2023-05-28T18:30:42;23.00;60.20
15184;DHT22;7693;49.266;7.104;2023-05-28T18:33:07;23.00;60.30
15184;DHT22;7693;49.266;7.104;2023-05-28T18:35:33;22.90;60.50
15184;DHT22;7693;49.266;7.104;2023-05-28T18:38:00;22.90;60.50
15184;DHT22;7693;49.266;7.104;2023-05-28T18:40:26;22.80;60.60
15184;DHT22;7693;49.266;7.104;2023-05-28T18:42:51;22.80;60.70
15184;DHT22;7693;49.266;7.104;2023-05-28T18:45:19;22.70;60.70
15184;DHT22;7693;49.266;7.104;2023-05-28T18:47:46;22.60;60.70
15184;DHT22;7693;49.266;7.104;2023-05-28T18:50:12;22.60;60.90
15184;DHT22;7693;49.266;7.104;2023-05-28T18:52:39;22.50;61.10
15184;DHT22;7693;49.266;7.104;2023-05-28T18:55:05;22.50;61.20
15184;DHT22;7693;49.266;7.104;2023-05-28T18:57:31;22.40;61.30
15184;DHT22;7693;49.266;7.104;2023-05-28T18:59:56;22.30;61.40
15184;DHT22;7693;49.266;7.104;2023-05-28T19:02:22;22.30;61.50
15184;DHT22;7693;49.266;7.104;2023-05-28T19:04:49;22.20;61.50
15184;DHT22;7693;49.266;7.104;2023-05-28T19:07:14;22.10;61.60
15184;DHT22;7693;49.266;7.104;2023-05-28T19:09:42;22.10;61.80
15184;DHT22;7693;49.266;7.104;2023-05-28T19:12:08;22.00;62.00
15184;DHT22;7693;49.266;7.104;2023-05-28T19:14:34;21.90;62.10
15184;DHT22;7693;49.266;7.104;2023-05-28T19:17:01;21.80;62.20
15184;DHT22;7693;49.266;7.104;2023-05-28T19:19:26;21.80;62.50
15184;DHT22;7693;49.266;7.104;2023-05-28T19:21:52;21.70;62.50
15184;DHT22;7693;49.266;7.104;2023-05-28T19:24:18;21.60;62.60
15184;DHT22;7693;49.266;7.104;2023-05-28T19:26:43;21.50;62.80
15184;DHT22;7693;49.266;7.104;2023-05-28T19:29:09;21.40;63.10
15184;DHT22;7693;49.266;7.104;2023-05-28T19:31:34;21.30;63.20
15184;DHT22;7693;49.266;7.104;2023-05-28T19:34:05;21.20;63.40
15184;DHT22;7693;49.266;7.104;2023-05-28T19:36:31;21.10;63.50
15184;DHT22;7693;49.266;7.104;2023-05-28T19:38:56;21.00;63.70
15184;DHT22;7693;49.266;7.104;2023-05-28T19:41:22;20.90;63.60
15184;DHT22;7693;49.266;7.104;2023-05-28T19:43:47;20.80;63.50
15184;DHT22;7693;49.266;7.104;2023-05-28T19:46:13;20.60;63.70
15184;DHT22;7693;49.266;7.104;2023-05-28T19:48:41;20.50;63.60
15184;DHT22;7693;49.266;7.104;2023-05-28T19:51:07;20.30;63.90
15184;DHT22;7693;49.266;7.104;2023-05-28T19:53:33;20.20;64.00
15184;DHT22;7693;49.266;7.104;2023-05-28T19:55:58;20.00;64.20
15184;DHT22;7693;49.266;7.104;2023-05-28T19:58:24;19.90;64.40
15184;DHT22;7693;49.266;7.104;2023-05-28T20:00:50;19.80;64.60
15184;DHT22;7693;49.266;7.104;2023-05-28T20:03:16;19.70;64.90
15184;DHT22;7693;49.266;7.104;2023-05-28T20:05:42;19.70;65.20
15184;DHT22;7693;49.266;7.104;2023-05-28T20:08:08;19.60;65.40
15184;DHT22;7693;49.266;7.104;2023-05-28T20:10:33;19.50;65.40
15184;DHT22;7693;49.266;7.104;2023-05-28T20:12:59;19.50;65.60
15184;DHT22;7693;49.266;7.104;2023-05-28T20:15:24;19.40;65.70
15184;DHT22;7693;49.266;7.104;2023-05-28T20:17:50;19.30;65.70
15184;DHT22;7693;49.266;7.104;2023-05-28T20:20:16;19.30;65.80
15184;DHT22;7693;49.266;7.104;2023-05-28T20:22:42;19.20;65.90
15184;DHT22;7693;49.266;7.104;2023-05-28T20:25:08;19.10;66.10
15184;DHT22;7693;49.266;7.104;2023-05-28T20:27:34;19.00;66.10
15184;DHT22;7693;49.266;7.104;2023-05-28T20:30:03;18.90;66.30
15184;DHT22;7693;49.266;7.104;2023-05-28T20:32:29;18.80;66.60
15184;DHT22;7693;49.266;7.104;2023-05-28T20:34:55;18.80;66.70
15184;DHT22;7693;49.266;7.104;2023-05-28T20:37:21;18.70;66.80
15184;DHT22;7693;49.266;7.104;2023-05-28T20:39:46;18.70;67.80
15184;DHT22;7693;49.266;7.104;2023-05-28T20:42:13;18.70;67.10
15184;DHT22;7693;49.266;7.104;2023-05-28T20:44:40;18.60;67.20
15184;DHT22;7693;49.266;7.104;2023-05-28T20:47:06;18.60;67.30
15184;DHT22;7693;49.266;7.104;2023-05-28T20:49:32;18.50;67.40
15184;DHT22;7693;49.266;7.104;2023-05-28T20:51:58;18.50;67.70
15184;DHT22;7693;49.266;7.104;2023-05-28T20:54:24;18.40;67.90
15184;DHT22;7693;49.266;7.104;2023-05-28T20:56:49;18.40;67.90
15184;DHT22;7693;49.266;7.104;2023-05-28T20:59:16;18.30;67.90
15184;DHT22;7693;49.266;7.104;2023-05-28T21:01:42;18.30;68.10
15184;DHT22;7693;49.266;7.104;2023-05-28T21:04:09;18.20;68.40
15184;DHT22;7693;49.266;7.104;2023-05-28T21:06:35;18.20;68.50
15184;DHT22;7693;49.266;7.104;2023-05-28T21:09:02;18.20;68.70
15184;DHT22;7693;49.266;7.104;2023-05-28T21:11:31;18.10;68.70
15184;DHT22;7693;49.266;7.104;2023-05-28T21:13:57;18.10;68.80
15184;DHT22;7693;49.266;7.104;2023-05-28T21:16:24;18.00;68.70
15184;DHT22;7693;49.266;7.104;2023-05-28T21:18:50;18.00;69.00
15184;DHT22;7693;49.266;7.104;2023-05-28T21:21:16;17.90;68.90
15184;DHT22;7693;49.266;7.104;2023-05-28T21:23:42;17.90;69.30
15184;DHT22;7693;49.266;7.104;2023-05-28T21:26:07;17.90;69.30
15184;DHT22;7693;49.266;7.104;2023-05-28T21:28:33;17.80;69.50
15184;DHT22;7693;49.266;7.104;2023-05-28T21:30:59;17.80;69.60
15184;DHT22;7693;49.266;7.104;2023-05-28T21:33:28;17.70;69.60
15184;DHT22;7693;49.266;7.104;2023-05-28T21:35:57;17.70;69.90
15184;DHT22;7693;49.266;7.104;2023-05-28T21:38:26;17.70;71.00
15184;DHT22;7693;49.266;7.104;2023-05-28T21:40:51;17.60;70.30
15184;DHT22;7693;49.266;7.104;2023-05-28T21:43:18;17.60;70.40
15184;DHT22;7693;49.266;7.104;2023-05-28T21:45:44;17.50;70.40
15184;DHT22;7693;49.266;7.104;2023-05-28T21:48:11;17.50;70.60
15184;DHT22;7693;49.266;7.104;2023-05-28T21:50:37;17.40;70.70
15184;DHT22;7693;49.266;7.104;2023-05-28T21:53:03;17.30;71.10
15184;DHT22;7693;49.266;7.104;2023-05-28T21:55:28;17.30;71.30
15184;DHT22;7693;49.266;7.104;2023-05-28T21:57:54;17.30;71.20
15184;DHT22;7693;49.266;7.104;2023-05-28T22:00:19;17.20;71.20
15184;DHT22;7693;49.266;7.104;2023-05-28T22:02:46;17.20;71.30
15184;DHT22;7693;49.266;7.104;2023-05-28T22:05:12;17.10;71.50
15184;DHT22;7693;49.266;7.104;2023-05-28T22:07:40;17.10;71.80
15184;DHT22;7693;49.266;7.104;2023-05-28T22:10:06;17.00;72.00
15184;DHT22;7693;49.266;7.104;2023-05-28T22:12:32;17.00;72.30
15184;DHT22;7693;49.266;7.104;2023-05-28T22:14:57;16.90;72.30
15184;DHT22;7693;49.266;7.104;2023-05-28T22:17:23;16.90;72.60
15184;DHT22;7693;49.266;7.104;2023-05-28T22:19:49;16.80;72.60
15184;DHT22;7693;49.266;7.104;2023-05-28T22:22:15;16.80;72.90
15184;DHT22;7693;49.266;7.104;2023-05-28T22:24:42;16.70;72.90
15184;DHT22;7693;49.266;7.104;2023-05-28T22:27:09;16.70;72.90
15184;DHT22;7693;49.266;7.104;2023-05-28T22:29:34;16.70;73.30
15184;DHT22;7693;49.266;7.104;2023-05-28T22:32:01;16.60;73.60
15184;DHT22;7693;49.266;7.104;2023-05-28T22:34:28;16.60;73.50
15184;DHT22;7693;49.266;7.104;2023-05-28T22:36:54;16.60;73.80
15184;DHT22;7693;49.266;7.104;2023-05-28T22:39:20;16.60;74.00
15184;DHT22;7693;49.266;7.104;2023-05-28T22:41:46;16.50;74.00
15184;DHT22;7693;49.266;7.104;2023-05-28T22:44:12;16.50;74.30
15184;DHT22;7693;49.266;7.104;2023-05-28T22:46:38;16.40;74.30
15184;DHT22;7693;49.266;7.104;2023-05-28T22:49:05;16.40;75.40
15184;DHT22;7693;49.266;7.104;2023-05-28T22:51:31;16.30;74.80
15184;DHT22;7693;49.266;7.104;2023-05-28T22:53:57;16.30;75.10
15184;DHT22;7693;49.266;7.104;2023-05-28T22:56:23;16.20;75.10
15184;DHT22;7693;49.266;7.104;2023-05-28T22:58:49;16.20;75.20
15184;DHT22;7693;49.266;7.104;2023-05-28T23:01:15;16.10;75.20
15184;DHT22;7693;49.266;7.104;2023-05-28T23:03:40;16.00;75.50
15184;DHT22;7693;49.266;7.104;2023-05-28T23:06:07;16.00;75.80
15184;DHT22;7693;49.266;7.104;2023-05-28T23:08:33;16.00;76.10
15184;DHT22;7693;49.266;7.104;2023-05-28T23:10:59;15.90;76.10
15184;DHT22;7693;49.266;7.104;2023-05-28T23:13:25;15.90;76.20
15184;DHT22;7693;49.266;7.104;2023-05-28T23:15:51;15.90;76.50
15184;DHT22;7693;49.266;7.104;2023-05-28T23:18:18;15.80;76.50
15184;DHT22;7693;49.266;7.104;2023-05-28T23:20:45;15.80;76.70
15184;DHT22;7693;49.266;7.104;2023-05-28T23:23:11;15.70;77.10
15184;DHT22;7693;49.266;7.104;2023-05-28T23:25:37;15.70;77.10
15184;DHT22;7693;49.266;7.104;2023-05-28T23:28:03;15.70;77.30
15184;DHT22;7693;49.266;7.104;2023-05-28T23:30:29;15.70;77.40
15184;DHT22;7693;49.266;7.104;2023-05-28T23:32:54;15.70;77.70
15184;DHT22;7693;49.266;7.104;2023-05-28T23:35:20;15.60;77.80
15184;DHT22;7693;49.266;7.104;2023-05-28T23:37:45;15.70;78.00
15184;DHT22;7693;49.266;7.104;2023-05-28T23:40:11;15.60;78.00
15184;DHT22;7693;49.266;7.104;2023-05-28T23:42:37;15.60;78.10
15184;DHT22;7693;49.266;7.104;2023-05-28T23:45:03;15.50;78.20
15184;DHT22;7693;49.266;7.104;2023-05-28T23:47:29;15.50;78.40
15184;DHT22;7693;49.266;7.104;2023-05-28T23:49:56;15.50;78.70
15184;DHT22;7693;49.266;7.104;2023-05-28T23:52:22;15.40;79.00
15184;DHT22;7693;49.266;7.104;2023-05-28T23:54:47;15.40;79.00
15184;DHT22;7693;49.266;7.104;2023-05-28T23:57:13;15.40;79.00
15184;DHT22;7693;49.266;7.104;2023-05-28T23:59:38;15.30;79.20
